Flugplatz Stuttgart

Bericht für EDDS

vom 27.09. um 00:20 UTC

Wind 7 kt aus 200°

Sichtweite 10 km oder mehr

schwacher Regen

gering bewölkt in 1000 ft

Temperatur 7.0°C

Taupunkt 6.0°C

Luftfeuchtigkeit 93%

Luftdruck 1001 hPa

EDDS 270020Z 20007KT 160V250 9999 -RA FEW010 07/06 Q1001

Prognose für EDDS

vom 26.09. um 23:00 UTC

Zwischen 00:00 UTC und 16:00 UTC

Wind 5 kt aus 200°

Sichtweite 10 km oder mehr

gering bewölkt in 1200 ft

aufgebrochene Bewölkung in 3500 ft


Zwischen 00:00 UTC und 06:00 UTC zeitweise

Sichtweite 3000 m

Regen

Sprühregen

aufgebrochene Bewölkung in 1200 ft


Zwischen 16:00 und 18:00 UTC übergehend zu

variable Windrichtung mit 3 kt

Sichtweite 10 km oder mehr

gering bewölkt in 1200 ft

aufgebrochene Bewölkung in 3500 ft

TAF EDDS 262300Z 2700/2724 20005KT 9999 FEW012 BKN035 TEMPO 2700/2706 3000 RADZ BKN012 BECMG 2716/2718 VRB03KT
Impressum